createdAt,value
2022-12-07T00:01:00.195Z,102000
2022-12-07T00:06:00.081Z,102000
2022-12-07T00:11:00.082Z,102010
2022-12-07T00:16:00.375Z,102010
2022-12-07T00:21:00.089Z,102000
2022-12-07T00:26:00.101Z,102000
2022-12-07T00:31:00.100Z,102000
2022-12-07T00:36:00.342Z,101990
2022-12-07T00:41:00.095Z,101980
2022-12-07T00:46:00.280Z,101970
2022-12-07T00:51:00.107Z,101980
2022-12-07T00:56:00.115Z,101970
2022-12-07T01:01:00.160Z,101970
2022-12-07T01:06:00.234Z,101970
2022-12-07T01:11:00.112Z,101960
2022-12-07T01:16:00.182Z,101960
2022-12-07T01:21:00.123Z,101970
2022-12-07T01:26:00.123Z,101970
2022-12-07T01:31:00.182Z,101970
2022-12-07T01:36:00.393Z,101970
2022-12-07T01:41:00.137Z,101970
2022-12-07T01:46:00.219Z,101970
2022-12-07T01:51:00.134Z,101970
2022-12-07T01:56:00.140Z,101980
2022-12-07T02:01:00.270Z,101980
2022-12-07T02:06:00.259Z,101970
2022-12-07T02:11:00.159Z,101970
2022-12-07T02:16:00.317Z,101960
2022-12-07T02:21:00.154Z,101950
2022-12-07T02:26:00.161Z,101960
2022-12-07T02:31:00.236Z,101950
2022-12-07T02:36:00.424Z,101950
2022-12-07T02:41:00.167Z,101960
2022-12-07T02:46:00.267Z,101970
2022-12-07T02:51:00.167Z,101970
2022-12-07T02:56:00.171Z,101960
2022-12-07T03:01:00.184Z,101960
2022-12-07T03:06:00.289Z,101960
2022-12-07T03:11:00.209Z,101960
2022-12-07T03:16:00.370Z,101960
2022-12-07T03:21:00.188Z,101960
2022-12-07T03:26:00.956Z,101970
2022-12-07T03:31:00.283Z,101970
2022-12-07T03:36:00.450Z,101960
2022-12-07T03:41:00.193Z,101950
2022-12-07T03:46:00.262Z,101950
2022-12-07T03:51:00.205Z,101940
2022-12-07T03:56:00.208Z,101940
2022-12-07T04:01:00.210Z,101940
2022-12-07T04:06:00.338Z,101940
2022-12-07T04:11:00.224Z,101930
2022-12-07T04:16:00.395Z,101930
2022-12-07T04:21:00.226Z,101930
2022-12-07T04:26:00.223Z,101930
2022-12-07T04:31:00.301Z,101930
2022-12-07T04:36:00.496Z,101930
2022-12-07T04:41:00.229Z,101930
2022-12-07T04:46:00.295Z,101930
2022-12-07T04:51:00.235Z,101930
2022-12-07T04:56:00.253Z,101930
2022-12-07T05:01:00.426Z,101920
2022-12-07T05:06:00.361Z,101920
2022-12-07T05:11:00.244Z,101920
2022-12-07T05:16:00.377Z,101920
2022-12-07T05:21:00.296Z,101930
2022-12-07T05:26:00.252Z,101930
2022-12-07T05:31:00.261Z,101930
2022-12-07T05:36:00.523Z,101930
2022-12-07T05:41:00.270Z,101930
2022-12-07T05:46:00.403Z,101930
2022-12-07T05:51:00.273Z,101920
2022-12-07T05:56:00.285Z,101910
2022-12-07T06:01:00.273Z,101910
2022-12-07T06:06:00.630Z,101910
2022-12-07T06:11:00.281Z,101900
2022-12-07T06:16:00.336Z,101910
2022-12-07T06:21:00.298Z,101910
2022-12-07T06:26:00.290Z,101910
2022-12-07T06:31:00.289Z,101920
2022-12-07T06:36:00.534Z,101920
2022-12-07T06:41:00.302Z,101920
2022-12-07T06:46:00.547Z,101920
2022-12-07T06:51:00.309Z,101920
2022-12-07T06:56:00.303Z,101920
2022-12-07T07:01:00.440Z,101920
2022-12-07T07:06:00.581Z,101920
2022-12-07T07:11:00.309Z,101930
2022-12-07T07:16:00.370Z,101930
2022-12-07T07:21:00.327Z,101930
2022-12-07T07:26:00.332Z,101940
2022-12-07T07:31:00.402Z,101940
2022-12-07T07:36:00.438Z,101940
2022-12-07T07:41:00.349Z,101940
2022-12-07T07:46:00.466Z,101940
2022-12-07T07:51:00.340Z,101950
2022-12-07T07:56:00.336Z,101950
2022-12-07T08:01:00.408Z,101950
2022-12-07T08:06:00.484Z,101950
2022-12-07T08:11:00.346Z,101940
2022-12-07T08:16:00.530Z,101950
2022-12-07T08:21:00.348Z,101960
2022-12-07T08:26:00.356Z,101950
2022-12-07T08:31:00.408Z,101960
2022-12-07T08:36:00.635Z,101960
2022-12-07T08:41:00.366Z,101970
2022-12-07T08:44:08.444Z,101970
2022-12-07T08:46:00.370Z,101970
2022-12-07T08:51:00.431Z,101950
2022-12-07T08:56:00.371Z,101950
2022-12-07T09:01:00.371Z,101950
2022-12-07T09:06:00.634Z,101950
2022-12-07T09:11:00.373Z,101950
2022-12-07T09:16:00.417Z,101950
2022-12-07T09:21:00.448Z,101940
2022-12-07T09:26:00.390Z,101950
2022-12-07T09:31:22.667Z,101960
2022-12-07T09:36:00.456Z,101950
2022-12-07T09:41:00.393Z,101950
2022-12-07T09:46:00.469Z,101960
2022-12-07T09:51:00.459Z,101960
2022-12-07T09:56:00.403Z,101950
2022-12-07T10:01:00.403Z,101950
2022-12-07T10:06:00.652Z,101940
2022-12-07T10:11:00.406Z,101930
2022-12-07T10:16:06.527Z,101930
2022-12-07T10:21:00.476Z,101930
2022-12-07T10:26:00.416Z,101910
2022-12-07T10:31:00.650Z,101910
2022-12-07T10:36:00.536Z,101920
2022-12-07T10:41:00.439Z,101910
2022-12-07T10:46:04.206Z,101920
2022-12-07T10:51:00.486Z,101910
2022-12-07T10:56:00.437Z,101910
2022-12-07T11:01:00.492Z,101900
2022-12-07T11:06:00.701Z,101890
2022-12-07T11:11:00.442Z,101880
2022-12-07T11:16:00.536Z,101880
2022-12-07T11:21:00.509Z,101870
2022-12-07T11:26:00.449Z,101860
2022-12-07T11:31:00.457Z,101860
2022-12-07T11:36:00.568Z,101860
2022-12-07T11:41:00.462Z,101850
2022-12-07T11:46:00.464Z,101840
2022-12-07T11:51:00.517Z,101840
2022-12-07T11:56:00.473Z,101840
2022-12-07T12:01:00.471Z,101830
2022-12-07T12:06:00.536Z,101830
2022-12-07T12:11:00.476Z,101830
2022-12-07T12:16:00.629Z,101820
2022-12-07T12:21:00.533Z,101820
2022-12-07T12:26:00.550Z,101810
2022-12-07T12:31:00.489Z,101810
2022-12-07T12:36:00.625Z,101790
2022-12-07T12:41:00.486Z,101800
2022-12-07T12:46:00.542Z,101790
2022-12-07T12:51:00.704Z,101790
2022-12-07T12:56:00.511Z,101790
2022-12-07T13:01:00.566Z,101780
2022-12-07T13:06:00.569Z,101770
2022-12-07T13:11:00.516Z,101770
2022-12-07T13:16:00.521Z,101760
2022-12-07T13:21:00.620Z,101760
2022-12-07T13:26:00.521Z,101750
2022-12-07T13:31:00.660Z,101740
2022-12-07T13:36:00.528Z,101750
2022-12-07T13:41:00.598Z,101740
2022-12-07T13:46:00.565Z,101740
2022-12-07T13:51:00.736Z,101730
2022-12-07T13:56:00.530Z,101720
2022-12-07T14:01:00.591Z,101730
2022-12-07T14:06:00.540Z,101720
2022-12-07T14:11:00.541Z,101710
2022-12-07T14:16:00.558Z,101710
2022-12-07T14:21:00.670Z,101700
2022-12-07T14:26:00.553Z,101710
2022-12-07T14:31:00.590Z,101710
2022-12-07T14:36:00.551Z,101710
2022-12-07T14:41:00.561Z,101720
2022-12-07T14:46:00.643Z,101710
2022-12-07T14:56:00.573Z,101700
2022-12-07T15:01:00.573Z,101700
2022-12-07T15:06:00.585Z,101700
2022-12-07T15:11:00.579Z,101700
2022-12-07T15:16:00.680Z,101700
2022-12-07T15:21:00.753Z,101700
2022-12-07T15:26:00.582Z,101700
2022-12-07T15:31:15.759Z,101690
2022-12-07T15:36:00.596Z,101690
2022-12-07T15:41:00.593Z,101680
2022-12-07T15:46:00.682Z,101680
2022-12-07T15:51:00.773Z,101670
2022-12-07T15:56:00.601Z,101660
2022-12-07T16:01:00.609Z,101660
2022-12-07T16:06:00.603Z,101650
2022-12-07T16:11:00.611Z,101650
2022-12-07T16:16:00.642Z,101650
2022-12-07T16:21:00.802Z,101650
2022-12-07T16:26:00.622Z,101640
2022-12-07T16:31:00.636Z,101640
2022-12-07T16:36:00.630Z,101640
2022-12-07T16:41:00.628Z,101630
2022-12-07T16:46:00.624Z,101630
2022-12-07T16:51:01.100Z,101620
2022-12-07T16:56:00.636Z,101620
2022-12-07T17:01:00.666Z,101620
2022-12-07T17:06:00.642Z,101620
2022-12-07T17:11:00.640Z,101610
2022-12-07T17:16:00.779Z,101610
2022-12-07T17:21:05.418Z,101610
2022-12-07T17:26:00.659Z,101610
2022-12-07T17:31:00.743Z,101600
2022-12-07T17:36:00.656Z,101600
2022-12-07T17:41:00.661Z,101600
2022-12-07T17:46:00.747Z,101600
2022-12-07T17:51:00.728Z,101580
2022-12-07T17:56:27.410Z,101570
2022-12-07T18:01:00.765Z,101570
2022-12-07T18:06:00.672Z,101560
2022-12-07T18:11:00.677Z,101560
2022-12-07T18:16:00.736Z,101560
2022-12-07T18:21:00.739Z,101550
2022-12-07T18:26:00.686Z,101550
2022-12-07T18:31:14.897Z,101550
2022-12-07T18:36:00.691Z,101550
2022-12-07T18:41:00.696Z,101550
2022-12-07T18:46:00.758Z,101550
2022-12-07T18:51:00.757Z,101540
2022-12-07T18:56:00.707Z,101540
2022-12-07T19:01:00.939Z,101530
2022-12-07T19:06:00.709Z,101520
2022-12-07T19:11:00.716Z,101520
2022-12-07T19:16:00.721Z,101530
2022-12-07T19:21:00.779Z,101530
2022-12-07T19:26:00.724Z,101530
2022-12-07T19:31:00.789Z,101520
2022-12-07T19:36:00.731Z,101520
2022-12-07T19:41:00.734Z,101520
2022-12-07T19:46:00.815Z,101510
2022-12-07T19:51:00.790Z,101510
2022-12-07T19:56:00.729Z,101500
2022-12-07T20:01:00.908Z,101490
2022-12-07T20:06:00.748Z,101490
2022-12-07T20:11:00.739Z,101490
2022-12-07T20:16:18.393Z,101480
2022-12-07T20:21:00.801Z,101480
2022-12-07T20:26:00.763Z,101470
2022-12-07T20:31:00.909Z,101470
2022-12-07T20:36:00.757Z,101460
2022-12-07T20:41:00.761Z,101460
2022-12-07T20:46:00.838Z,101470
2022-12-07T20:51:00.826Z,101450
2022-12-07T20:56:00.770Z,101440
2022-12-07T21:01:01.078Z,101440
2022-12-07T21:06:00.771Z,101430
2022-12-07T21:11:00.773Z,101440
2022-12-07T21:16:00.861Z,101430
2022-12-07T21:21:00.842Z,101430
2022-12-07T21:26:00.786Z,101420
2022-12-07T21:31:13.795Z,101420
2022-12-07T21:36:00.793Z,101420
2022-12-07T21:41:00.803Z,101410
2022-12-07T21:46:00.870Z,101410
2022-12-07T21:51:00.865Z,101410
2022-12-07T21:56:00.803Z,101400
2022-12-07T22:01:01.064Z,101400
2022-12-07T22:06:00.816Z,101400
2022-12-07T22:11:00.807Z,101400
2022-12-07T22:16:00.834Z,101390
2022-12-07T22:21:00.872Z,101400
2022-12-07T22:26:00.822Z,101390
2022-12-07T22:31:01.041Z,101390
2022-12-07T22:36:00.824Z,101390
2022-12-07T22:41:00.833Z,101390
2022-12-07T22:46:00.841Z,101380
2022-12-07T22:51:00.884Z,101380
2022-12-07T22:56:00.832Z,101370
2022-12-07T23:01:00.953Z,101360
2022-12-07T23:06:00.837Z,101360
2022-12-07T23:11:00.843Z,101350
2022-12-07T23:16:00.929Z,101350
2022-12-07T23:21:00.903Z,101340
2022-12-07T23:26:00.848Z,101340
2022-12-07T23:31:01.243Z,101330
2022-12-07T23:36:00.851Z,101320
2022-12-07T23:41:00.899Z,101320
2022-12-07T23:46:00.855Z,101310
2022-12-07T23:51:00.921Z,101300
2022-12-07T23:56:00.864Z,101290
